createdAt,value
2022-08-08T00:00:53.279Z,21.00
2022-08-08T00:03:13.164Z,21.00
2022-08-08T00:06:28.760Z,21.10
2022-08-08T00:09:15.950Z,21.00
2022-08-08T00:12:09.422Z,21.00
2022-08-08T00:14:58.867Z,20.90
2022-08-08T00:17:58.458Z,21.00
2022-08-08T00:20:36.044Z,20.90
2022-08-08T00:23:19.993Z,20.80
2022-08-08T00:25:57.680Z,20.80
2022-08-08T00:28:39.014Z,20.60
2022-08-08T00:32:20.005Z,20.50
2022-08-08T00:34:27.140Z,20.40
2022-08-08T00:37:08.175Z,20.30
2022-08-08T00:41:06.529Z,20.30
2022-08-08T00:43:19.318Z,20.30
2022-08-08T00:46:25.248Z,20.30
2022-08-08T00:49:01.972Z,20.30
2022-08-08T00:51:45.986Z,20.30
2022-08-08T00:54:41.052Z,20.40
2022-08-08T00:57:29.556Z,20.30
2022-08-08T01:00:19.626Z,20.40
2022-08-08T01:04:02.026Z,20.40
2022-08-08T01:06:41.768Z,20.40
2022-08-08T01:09:36.801Z,20.30
2022-08-08T01:12:38.671Z,20.30
2022-08-08T01:15:53.414Z,20.30
2022-08-08T01:18:52.413Z,20.20
2022-08-08T01:22:12.708Z,20.20
2022-08-08T01:24:43.722Z,20.20
2022-08-08T01:27:46.875Z,20.20
2022-08-08T01:30:54.069Z,20.20
2022-08-08T01:33:43.255Z,20.20
2022-08-08T01:36:30.957Z,20.30
2022-08-08T01:39:20.126Z,20.10
2022-08-08T01:42:36.307Z,19.90
2022-08-08T01:45:15.245Z,19.90
2022-08-08T01:48:27.826Z,19.80
2022-08-08T01:51:29.874Z,19.80
2022-08-08T01:55:45.596Z,19.80
2022-08-08T01:58:12.692Z,19.80
2022-08-08T02:01:55.016Z,19.90
2022-08-08T02:04:43.512Z,20.00
2022-08-08T02:07:21.747Z,19.80
2022-08-08T02:10:30.203Z,19.70
2022-08-08T02:13:52.629Z,19.60
2022-08-08T02:16:36.181Z,19.60
2022-08-08T02:19:57.056Z,19.50
2022-08-08T02:22:31.869Z,19.60
2022-08-08T02:25:46.971Z,19.60
2022-08-08T02:28:35.135Z,19.50
2022-08-08T02:31:53.963Z,19.50
2022-08-08T02:34:34.539Z,19.50
2022-08-08T02:37:51.989Z,19.50
2022-08-08T02:40:35.069Z,19.60
2022-08-08T02:44:39.101Z,19.60
2022-08-08T02:46:56.804Z,19.60
2022-08-08T02:49:53.756Z,19.60
2022-08-08T02:52:40.076Z,19.60
2022-08-08T02:55:57.687Z,19.60
2022-08-08T02:58:49.887Z,19.60
2022-08-08T03:01:23.737Z,19.60
2022-08-08T03:05:04.906Z,19.50
2022-08-08T03:07:25.219Z,19.50
2022-08-08T03:10:31.676Z,19.40
2022-08-08T03:15:58.109Z,19.50
2022-08-08T03:16:50.392Z,19.50
2022-08-08T03:19:26.046Z,19.60
2022-08-08T03:21:59.618Z,19.60
2022-08-08T03:24:30.345Z,19.50
2022-08-08T03:27:27.089Z,19.50
2022-08-08T03:30:08.872Z,19.60
2022-08-08T03:33:00.071Z,19.60
2022-08-08T03:35:38.582Z,19.70
2022-08-08T03:38:56.271Z,19.70
2022-08-08T03:40:56.819Z,19.70
2022-08-08T03:43:31.640Z,19.70
2022-08-08T03:46:09.501Z,19.70
2022-08-08T03:49:38.304Z,19.80
2022-08-08T03:51:50.545Z,19.90
2022-08-08T03:54:51.988Z,20.00
2022-08-08T03:58:32.316Z,19.90
2022-08-08T04:00:11.902Z,19.90
2022-08-08T04:03:03.380Z,19.90
2022-08-08T04:05:35.363Z,19.90
2022-08-08T04:08:33.823Z,19.90
2022-08-08T04:11:23.689Z,19.80
2022-08-08T04:14:03.406Z,19.70
2022-08-08T04:16:44.140Z,19.70
2022-08-08T04:19:23.069Z,19.60
2022-08-08T04:21:54.752Z,19.60
2022-08-08T04:24:30.706Z,19.70
2022-08-08T04:27:02.555Z,19.70
2022-08-08T04:29:37.499Z,19.70
2022-08-08T04:32:14.328Z,19.70
2022-08-08T04:34:59.913Z,19.70
2022-08-08T04:37:34.194Z,19.70
2022-08-08T04:40:10.700Z,19.70
2022-08-08T04:42:56.613Z,19.80
2022-08-08T04:45:33.473Z,19.80
2022-08-08T04:48:03.621Z,20.00
2022-08-08T04:50:38.360Z,20.00
2022-08-08T04:53:14.317Z,20.00
2022-08-08T04:55:59.714Z,20.00
2022-08-08T04:58:31.721Z,20.10
2022-08-08T05:01:05.848Z,20.30
2022-08-08T05:04:10.541Z,20.50
2022-08-08T05:06:29.016Z,20.30
2022-08-08T05:09:02.395Z,20.30
2022-08-08T05:11:39.035Z,20.40
2022-08-08T05:14:12.307Z,20.40
2022-08-08T05:16:52.272Z,20.60
2022-08-08T05:20:12.536Z,20.60
2022-08-08T05:22:18.148Z,20.70
2022-08-08T05:24:49.624Z,20.60
2022-08-08T05:27:21.577Z,20.90
2022-08-08T05:29:52.166Z,20.70
2022-08-08T05:32:29.919Z,21.00
2022-08-08T05:35:05.251Z,21.20
2022-08-08T05:37:52.633Z,21.30
2022-08-08T05:40:33.349Z,21.60
2022-08-08T05:43:17.252Z,21.50
2022-08-08T05:46:07.713Z,21.60
2022-08-08T05:48:42.011Z,21.40
2022-08-08T05:51:15.687Z,21.30
2022-08-08T05:53:56.263Z,21.40
2022-08-08T05:56:47.699Z,21.40
2022-08-08T06:00:00.730Z,21.50
2022-08-08T06:02:44.101Z,21.40
2022-08-08T06:05:32.016Z,21.80
2022-08-08T06:08:14.504Z,22.10
2022-08-08T06:10:55.069Z,22.40
2022-08-08T06:13:36.277Z,22.60
2022-08-08T06:16:19.035Z,22.50
2022-08-08T06:19:03.878Z,22.30
2022-08-08T06:21:48.794Z,22.40
2022-08-08T06:24:30.465Z,22.50
2022-08-08T06:27:05.562Z,22.90
2022-08-08T06:29:59.298Z,23.20
2022-08-08T06:32:32.067Z,23.60
2022-08-08T06:36:04.137Z,23.80
2022-08-08T06:38:09.320Z,23.80
2022-08-08T06:40:53.721Z,23.80
2022-08-08T06:43:36.366Z,23.50
2022-08-08T06:46:12.775Z,23.20
2022-08-08T06:48:44.338Z,23.70
2022-08-08T06:51:15.794Z,23.60
2022-08-08T06:53:51.205Z,23.80
2022-08-08T06:56:34.066Z,24.20
2022-08-08T06:59:09.639Z,24.30
2022-08-08T07:02:27.440Z,24.00
2022-08-08T07:04:58.605Z,24.10
2022-08-08T07:07:44.830Z,24.10
2022-08-08T07:10:20.646Z,24.30
2022-08-08T07:12:56.281Z,24.60
2022-08-08T07:16:05.440Z,24.70
2022-08-08T07:19:16.913Z,25.40
2022-08-08T07:22:11.914Z,25.30
2022-08-08T07:24:58.602Z,25.40
2022-08-08T07:28:00.637Z,25.60
2022-08-08T07:30:30.942Z,25.60
2022-08-08T07:33:01.140Z,25.60
2022-08-08T07:35:35.468Z,25.70
2022-08-08T07:38:18.453Z,25.90
2022-08-08T07:40:59.140Z,25.90
2022-08-08T07:43:36.919Z,26.30
2022-08-08T07:46:24.025Z,26.80
2022-08-08T07:48:59.779Z,27.30
2022-08-08T07:51:44.679Z,26.90
2022-08-08T07:54:39.904Z,26.80
2022-08-08T07:57:17.331Z,26.60
2022-08-08T08:00:03.327Z,26.60
2022-08-08T08:02:41.628Z,27.20
2022-08-08T08:05:33.390Z,27.10
2022-08-08T08:08:15.324Z,27.30
2022-08-08T08:10:52.807Z,27.50
2022-08-08T08:14:08.436Z,27.80
2022-08-08T08:16:50.360Z,27.80
2022-08-08T08:19:24.327Z,27.90
2022-08-08T08:21:58.453Z,28.50
2022-08-08T08:24:39.662Z,28.70
2022-08-08T08:27:12.032Z,28.90
2022-08-08T08:29:44.094Z,28.90
2022-08-08T08:32:31.712Z,28.90
2022-08-08T08:35:07.991Z,29.10
2022-08-08T08:37:59.117Z,29.10
2022-08-08T08:40:29.097Z,29.30
2022-08-08T08:43:01.391Z,29.50
2022-08-08T08:45:31.254Z,29.60
2022-08-08T08:48:05.843Z,29.70
2022-08-08T08:50:40.825Z,29.90
2022-08-08T08:53:27.833Z,29.70
2022-08-08T08:56:14.417Z,29.60
2022-08-08T08:58:50.727Z,29.20
2022-08-08T09:01:28.058Z,29.10
2022-08-08T09:04:10.176Z,29.70
2022-08-08T09:06:59.404Z,30.20
2022-08-08T09:09:40.310Z,30.90
2022-08-08T09:12:25.521Z,31.10
2022-08-08T09:14:59.294Z,31.20
2022-08-08T09:17:41.775Z,31.20
2022-08-08T09:21:57.375Z,31.20
2022-08-08T09:23:17.634Z,31.60
2022-08-08T09:26:02.109Z,32.00
2022-08-08T09:28:40.121Z,31.90
2022-08-08T09:31:28.993Z,31.70
2022-08-08T09:34:32.330Z,31.90
2022-08-08T09:37:34.236Z,32.10
2022-08-08T09:40:10.430Z,31.80
2022-08-08T09:42:51.182Z,31.80
2022-08-08T09:50:35.527Z,32.30
2022-08-08T09:53:10.314Z,32.30
2022-08-08T09:56:05.747Z,32.50
2022-08-08T09:58:41.661Z,32.90
2022-08-08T10:01:15.565Z,33.20
2022-08-08T10:04:02.124Z,33.30
2022-08-08T10:06:32.910Z,33.20
2022-08-08T10:09:04.000Z,33.30
2022-08-08T10:12:26.223Z,32.90
2022-08-08T10:14:28.331Z,32.70
2022-08-08T10:17:56.329Z,32.30
2022-08-08T10:20:00.217Z,32.20
2022-08-08T10:22:29.899Z,32.70
2022-08-08T10:25:15.795Z,32.90
2022-08-08T10:27:49.613Z,32.50
2022-08-08T10:30:57.301Z,32.40
2022-08-08T10:33:09.862Z,32.30
2022-08-08T10:36:09.181Z,32.80
2022-08-08T10:38:34.845Z,33.00
2022-08-08T10:41:05.688Z,33.00
2022-08-08T10:43:43.300Z,33.40
2022-08-08T10:46:30.299Z,32.30
2022-08-08T10:48:59.607Z,32.70
2022-08-08T10:51:40.853Z,33.00
2022-08-08T10:54:25.362Z,33.30
2022-08-08T10:56:59.954Z,33.50
2022-08-08T10:59:31.168Z,33.50
2022-08-08T11:02:09.314Z,33.30
2022-08-08T11:04:53.604Z,32.70
2022-08-08T11:08:38.804Z,32.90
2022-08-08T11:10:29.943Z,32.90
2022-08-08T11:13:27.899Z,33.00
2022-08-08T11:15:54.798Z,33.30
2022-08-08T11:18:30.578Z,33.40
2022-08-08T11:21:10.060Z,33.30
2022-08-08T11:23:42.702Z,33.40
2022-08-08T11:26:18.687Z,33.70
2022-08-08T11:28:50.305Z,34.00
2022-08-08T11:31:20.859Z,34.10
2022-08-08T11:34:01.560Z,34.20
2022-08-08T11:36:36.475Z,34.10
2022-08-08T11:39:05.742Z,33.90
2022-08-08T11:41:39.405Z,33.90
2022-08-08T11:44:13.462Z,33.90
2022-08-08T11:46:42.388Z,33.80
2022-08-08T11:49:14.078Z,33.80
2022-08-08T11:51:50.630Z,34.10
2022-08-08T11:54:37.941Z,34.30
2022-08-08T11:57:14.548Z,34.20
2022-08-08T12:00:05.314Z,34.10
2022-08-08T12:02:51.067Z,34.20
2022-08-08T12:05:30.791Z,34.30
2022-08-08T12:08:02.058Z,34.20
2022-08-08T12:10:33.625Z,34.30
2022-08-08T12:13:04.284Z,34.30
2022-08-08T12:15:41.822Z,34.50
2022-08-08T12:18:21.678Z,34.30
2022-08-08T12:20:55.320Z,33.90
2022-08-08T12:23:30.619Z,34.10
2022-08-08T12:26:17.472Z,34.40
2022-08-08T12:28:57.591Z,34.20
2022-08-08T12:31:39.128Z,34.10
2022-08-08T12:34:36.055Z,33.80
2022-08-08T12:37:08.276Z,33.10
2022-08-08T12:40:02.031Z,33.00
2022-08-08T12:42:27.347Z,33.10
2022-08-08T12:45:20.010Z,33.30
2022-08-08T12:48:09.759Z,33.30
2022-08-08T12:50:50.167Z,33.20
2022-08-08T12:53:21.996Z,33.30
2022-08-08T12:56:08.829Z,33.30
2022-08-08T12:58:51.186Z,33.30
2022-08-08T13:01:24.703Z,33.40
2022-08-08T13:04:19.312Z,33.30
2022-08-08T13:06:54.457Z,33.30
2022-08-08T13:10:00.796Z,33.20
2022-08-08T13:12:46.727Z,33.00
2022-08-08T13:15:16.851Z,33.00
2022-08-08T13:18:09.407Z,32.90
2022-08-08T13:20:33.092Z,32.90
2022-08-08T13:23:30.595Z,32.80
2022-08-08T13:25:58.549Z,32.50
2022-08-08T13:28:32.130Z,31.90
2022-08-08T13:31:03.975Z,31.50
2022-08-08T13:33:41.950Z,31.40
2022-08-08T13:36:12.197Z,31.40
2022-08-08T13:38:40.172Z,31.40
2022-08-08T13:41:16.810Z,31.40
2022-08-08T13:43:47.100Z,31.40
2022-08-08T13:46:26.361Z,31.30
2022-08-08T13:49:11.844Z,31.20
2022-08-08T13:51:57.843Z,31.00
2022-08-08T13:54:31.100Z,30.90
2022-08-08T13:58:06.245Z,30.90
2022-08-08T14:00:11.003Z,30.50
2022-08-08T14:06:49.315Z,30.10
2022-08-08T14:09:29.795Z,29.80
2022-08-08T14:11:59.918Z,29.70
2022-08-08T14:14:46.157Z,29.80
2022-08-08T14:17:36.177Z,29.90
2022-08-08T14:20:15.521Z,29.90
2022-08-08T14:23:10.427Z,29.80
2022-08-08T14:25:58.423Z,29.80
2022-08-08T14:28:30.249Z,29.70
2022-08-08T14:31:10.553Z,29.70
2022-08-08T14:33:39.317Z,29.70
2022-08-08T14:36:13.417Z,29.60
2022-08-08T14:38:52.839Z,29.30
2022-08-08T14:41:45.463Z,28.00
2022-08-08T14:44:19.582Z,26.00
2022-08-08T14:47:00.199Z,25.20
2022-08-08T14:49:51.631Z,24.90
2022-08-08T14:52:23.655Z,24.80
2022-08-08T14:54:51.637Z,24.20
2022-08-08T14:57:20.763Z,23.40
2022-08-08T15:00:09.340Z,23.20
2022-08-08T15:03:01.492Z,23.50
2022-08-08T15:05:42.804Z,23.50
2022-08-08T15:08:22.142Z,23.30
2022-08-08T15:10:50.608Z,23.00
2022-08-08T15:13:18.537Z,22.70
2022-08-08T15:16:01.669Z,22.50
2022-08-08T15:18:31.332Z,21.50
2022-08-08T15:20:59.468Z,20.70
2022-08-08T15:23:33.243Z,20.20
2022-08-08T15:26:03.980Z,20.50
2022-08-08T15:28:33.891Z,19.90
2022-08-08T15:31:02.577Z,19.60
2022-08-08T15:33:38.701Z,19.40
2022-08-08T15:36:18.933Z,19.20
2022-08-08T15:38:51.630Z,19.40
2022-08-08T15:41:24.894Z,20.10
2022-08-08T15:44:00.797Z,20.00
2022-08-08T15:46:34.976Z,20.10
2022-08-08T15:49:04.471Z,20.30
2022-08-08T15:51:33.471Z,20.30
2022-08-08T15:54:04.158Z,20.20
2022-08-08T15:56:32.739Z,20.00
2022-08-08T15:59:02.806Z,20.10
2022-08-08T16:01:40.778Z,19.90
2022-08-08T16:04:19.274Z,19.50
2022-08-08T16:06:50.642Z,19.30
2022-08-08T16:13:03.134Z,18.90
2022-08-08T16:13:05.265Z,19.00
2022-08-08T16:14:55.680Z,19.00
2022-08-08T16:17:58.199Z,19.00
2022-08-08T16:20:13.542Z,18.90
2022-08-08T16:22:42.111Z,19.10
2022-08-08T16:25:17.181Z,19.30
2022-08-08T16:27:56.942Z,19.30
2022-08-08T16:30:32.525Z,19.10
2022-08-08T16:33:04.884Z,19.10
2022-08-08T16:35:34.726Z,19.10
2022-08-08T16:38:02.588Z,19.00
2022-08-08T16:40:31.411Z,19.00
2022-08-08T16:42:59.330Z,19.00
2022-08-08T16:46:37.516Z,19.10
2022-08-08T16:48:16.158Z,19.20
2022-08-08T16:50:44.151Z,19.30
2022-08-08T16:55:02.366Z,19.30
2022-08-08T16:56:03.087Z,19.40
2022-08-08T16:58:35.895Z,19.80
2022-08-08T17:01:11.374Z,20.10
2022-08-08T17:04:00.483Z,20.20
2022-08-08T17:06:36.166Z,20.20
2022-08-08T17:09:15.612Z,20.20
2022-08-08T17:11:48.532Z,20.30
2022-08-08T17:14:27.578Z,20.30
2022-08-08T17:17:41.515Z,20.30
2022-08-08T17:19:55.328Z,20.40
2022-08-08T17:22:39.203Z,20.40
2022-08-08T17:25:11.852Z,20.30
2022-08-08T17:27:46.577Z,20.30
2022-08-08T17:30:23.459Z,20.30
2022-08-08T17:34:37.190Z,20.20
2022-08-08T17:35:54.267Z,20.20
2022-08-08T17:38:24.331Z,20.20
2022-08-08T17:40:59.799Z,20.20
2022-08-08T17:43:27.765Z,20.30
2022-08-08T17:45:55.869Z,20.40
2022-08-08T17:48:30.903Z,20.50
2022-08-08T17:51:00.127Z,20.50
2022-08-08T17:53:43.394Z,20.70
2022-08-08T17:56:11.631Z,20.90
2022-08-08T17:58:40.316Z,21.00
2022-08-08T18:01:10.873Z,20.90
2022-08-08T18:03:39.009Z,21.00
2022-08-08T18:06:22.175Z,20.90
2022-08-08T18:08:55.552Z,20.80
2022-08-08T18:11:23.465Z,20.70
2022-08-08T18:13:51.241Z,20.60
2022-08-08T18:16:22.986Z,20.50
2022-08-08T18:18:56.496Z,20.50
2022-08-08T18:22:00.548Z,20.50
2022-08-08T18:24:21.545Z,20.50
2022-08-08T18:26:54.508Z,20.10
2022-08-08T18:29:33.789Z,20.00
2022-08-08T18:32:04.478Z,19.90
2022-08-08T18:34:33.981Z,19.90
2022-08-08T18:37:07.996Z,19.80
2022-08-08T18:39:38.240Z,19.80
2022-08-08T18:42:15.669Z,19.70
2022-08-08T18:44:53.031Z,19.70
2022-08-08T18:47:24.204Z,19.70
2022-08-08T18:49:58.967Z,19.70
2022-08-08T18:52:30.462Z,19.70
2022-08-08T18:54:59.171Z,19.80
2022-08-08T18:57:43.446Z,19.80
2022-08-08T19:00:19.634Z,19.70
2022-08-08T19:02:55.161Z,19.70
2022-08-08T19:05:32.103Z,19.70
2022-08-08T19:08:24.842Z,19.70
2022-08-08T19:10:58.904Z,19.80
2022-08-08T19:13:38.536Z,19.80
2022-08-08T19:16:19.001Z,19.90
2022-08-08T19:18:55.977Z,20.00
2022-08-08T19:21:30.655Z,20.00
2022-08-08T19:24:05.467Z,20.10
2022-08-08T19:26:37.452Z,20.10
2022-08-08T19:29:06.498Z,20.10
2022-08-08T19:31:35.461Z,20.10
2022-08-08T19:34:30.376Z,20.20
2022-08-08T19:36:55.360Z,20.30
2022-08-08T19:39:30.787Z,20.30
2022-08-08T19:42:06.631Z,20.30
2022-08-08T19:44:45.660Z,20.20
2022-08-08T19:47:16.629Z,20.10
2022-08-08T19:49:59.576Z,20.00
2022-08-08T19:52:35.303Z,20.00
2022-08-08T19:55:14.547Z,19.90
2022-08-08T19:57:47.439Z,19.80
2022-08-08T20:00:29.811Z,19.80
2022-08-08T20:03:01.284Z,19.70
2022-08-08T20:06:13.539Z,19.70
2022-08-08T20:08:29.923Z,19.80
2022-08-08T20:11:00.968Z,19.70
2022-08-08T20:14:12.445Z,19.70
2022-08-08T20:16:18.494Z,19.60
2022-08-08T20:18:52.937Z,19.40
2022-08-08T20:21:25.992Z,19.30
2022-08-08T20:23:57.863Z,19.20
2022-08-08T20:26:30.137Z,19.20
2022-08-08T20:29:04.232Z,19.10
2022-08-08T20:32:06.856Z,19.10
2022-08-08T20:34:28.736Z,19.20
2022-08-08T20:37:00.187Z,19.10
2022-08-08T20:39:33.652Z,19.20
2022-08-08T20:42:01.717Z,19.30
2022-08-08T20:44:29.594Z,19.30
2022-08-08T20:46:57.671Z,19.20
2022-08-08T20:49:32.452Z,19.20
2022-08-08T20:52:08.997Z,19.20
2022-08-08T20:54:36.877Z,19.20
2022-08-08T20:57:18.861Z,19.20
2022-08-08T20:59:49.340Z,19.20
2022-08-08T21:02:25.191Z,19.10
2022-08-08T21:05:01.178Z,19.00
2022-08-08T21:08:34.516Z,19.10
2022-08-08T21:10:21.141Z,18.90
2022-08-08T21:12:52.977Z,18.90
2022-08-08T21:16:06.319Z,18.90
2022-08-08T21:18:12.078Z,19.00
2022-08-08T21:20:42.355Z,19.00
2022-08-08T21:23:13.206Z,19.00
2022-08-08T21:25:48.980Z,19.00
2022-08-08T21:28:33.315Z,19.00
2022-08-08T21:31:21.679Z,19.00
2022-08-08T21:33:51.027Z,19.00
2022-08-08T21:36:21.462Z,19.00
2022-08-08T21:38:58.240Z,19.10
2022-08-08T21:41:38.604Z,19.20
2022-08-08T21:44:15.001Z,19.40
2022-08-08T21:48:07.511Z,19.50
2022-08-08T21:49:33.796Z,19.50
2022-08-08T21:54:34.363Z,19.60
2022-08-08T21:55:02.356Z,19.60
2022-08-08T21:57:41.951Z,19.50
2022-08-08T22:00:14.265Z,19.40
2022-08-08T22:02:44.158Z,19.40
2022-08-08T22:05:14.952Z,19.30
2022-08-08T22:07:47.458Z,19.30
2022-08-08T22:10:28.652Z,19.40
2022-08-08T22:13:18.858Z,19.30
2022-08-08T22:15:59.002Z,19.30
2022-08-08T22:23:51.218Z,19.50
2022-08-08T22:26:29.972Z,19.50
2022-08-08T22:29:12.841Z,19.50
2022-08-08T22:31:58.486Z,19.50
2022-08-08T22:34:39.277Z,19.50
2022-08-08T22:37:14.963Z,19.50
2022-08-08T22:40:00.135Z,19.40
2022-08-08T22:42:34.552Z,19.40
2022-08-08T22:45:12.899Z,19.30
2022-08-08T22:47:47.437Z,19.30
2022-08-08T22:50:26.078Z,19.20
2022-08-08T22:54:31.952Z,19.10
2022-08-08T22:55:58.516Z,19.00
2022-08-08T22:58:32.732Z,19.00
2022-08-08T23:02:02.964Z,19.10
2022-08-08T23:03:58.063Z,19.10
2022-08-08T23:06:26.650Z,19.10
2022-08-08T23:08:58.991Z,19.20
2022-08-08T23:11:31.093Z,19.20
2022-08-08T23:14:19.185Z,19.30
2022-08-08T23:16:57.499Z,19.30
2022-08-08T23:19:32.414Z,19.30
2022-08-08T23:22:06.623Z,19.30
2022-08-08T23:24:41.362Z,19.30
2022-08-08T23:27:11.493Z,19.40
2022-08-08T23:29:59.257Z,19.30
2022-08-08T23:32:27.170Z,19.40
2022-08-08T23:34:58.856Z,19.30
2022-08-08T23:38:02.073Z,19.30
2022-08-08T23:40:22.085Z,19.30
2022-08-08T23:42:51.305Z,19.30
2022-08-08T23:45:19.509Z,19.30
2022-08-08T23:49:06.575Z,19.30
2022-08-08T23:50:57.238Z,19.30
2022-08-08T23:53:57.143Z,19.30
2022-08-08T23:56:13.760Z,19.20
2022-08-08T23:58:52.291Z,19.20
